Adams, OR

4:20 AM PDT on September 01, 2014 (GMT -0700)
APRSWXNET Athena OR US | Change Station
CLOSE
Current Station
Personal Weather Station
Location: Athena, OR
Elevation: 1735 ft
Nearby Weather Stations

Elev 1735 ft 45.82 °N, 118.49 °W | Updated 45 minutes ago

Overcast
Overcast
51 °F
Feels Like 51 °F
N
0
Wind Variable Wind from SSW
Gusts 1.0 mph

Today
High -- | Low -- °F
--% Chance of Precip.
Yesterday
High -- | Low -- °F
Precip. -- in
6:15 AM 7:32 PM
Waxing Crescent, 40% visible
Pressure 30.00 in
Visibility 10.0 miles
Clouds Overcast 6000 ft
Dew Point 43 °F
Humidity 75%
Rainfall 0.00 in
Snow Depth Not available.
UV 0 out of 12
Pollen 5.60 out of 12
Air Quality Not available.
Flu Activity Not available.
METAR KPDT 011053Z AUTO 15004KT 10SM OVC060 13/07 A3004 RMK AO2 SLP159 T01330067

More Conditions Fewer Conditions

Pressure 30.00 in
Visibility 10.0 miles
Clouds Overcast 6000 ft
Dew Point 43 °F
Humidity 75%
Rainfall 0.00 in
Snow Depth Not available.
UV 0 out of 12
Pollen 5.60 out of 12
Air Quality Not available.
Flu Activity Not available.
METAR KPDT 011053Z AUTO 15004KT 10SM OVC060 13/07 A3004 RMK AO2 SLP159 T01330067

More Conditions Fewer Conditions

10-Day Weather Forecast

Almanac

Astronomy

Sep. 01, 2014 Rise Set
Actual Time 6:15 AM PDT 7:32 PM PDT
Civil Twilight 5:44 AM PDT 8:02 PM PDT
Nautical Twilight 5:07 AM PDT 8:39 PM PDT
Astronomical Twilight 4:28 AM PDT 9:18 PM PDT
Moon 1:26 PM PDT 11:15 PM PDT
Length of Visible Light 14h 18m
Length of Day
13h 16m
Tomorrow will be 3m 6s shorter.
Waxing Crescent, 40% of the Moon is Illuminated
Today
Waxing Crescent
Sep 2
First Quarter
Sep 8
Full
Sep 15
Last Quarter
Sep 24
New

Today's Extremes

State Highs State Lows

Community

WunderPhotos

Upload Photos

1,749,188 photos uploaded!

Nearby

Snow Depth

Station Depth Elevation
High Ridge 0 in 4980 ft
Bowman Springs 0 in 4580 ft
Lucky Strike 1 in 5050 ft
Madison Butte 0 in 5250 ft
Bourne 0 in 5800 ft

Earthquake Activity

City Distance Mag. Time & Date
No recent earthquake activity has been reported nearby.
Minimum magnitude displayed is 2.5.

Coastal Water Temperatures

Place Temperature
No Stations Reporting

Nearby Weather Stations